Meteo Giornale » Osservazioni meteo Stati Uniti (USA) » Los Angeles

ore: 05:53 - Osservazioni Meteo Los Angeles
Lat. 33° 56' N Lon. 118° 23' W Alt. 38 metri s.l.m.

poco_nuvoloso America/Los_Angeles

14 °C

Poco Nuvoloso

Temp. 24 Ore

12 °C

19 °C

Est/Nord-Est

16.7 Km/h

Dew point 3 °C

Umidità 47 %

Visibilità  10 Km

Il sole sorge alle ore 06:43

Il sole tramonta alle ore 19:13

Data e Ora Cielo e Fenomeni T °C DP °C Um. % Pres. hPa Vis. km Vento km/h
Oggi h: 05:53 poco_nuvoloso Poco Nuvoloso 14 3 47 1015 10 E/NE 16.7
Oggi h: 05:47 poco_nuvoloso Poco Nuvoloso 15 3 44 1016 10 E 13
Oggi h: 04:53 sereno Sereno 16 4 44 1015 10 N 5.5
Oggi h: 03:53 sereno Sereno 15 6 54 1016 10 N 24
Oggi h: 02:53 sereno Sereno 15 4 47 1015 10 NE 11.1
Oggi h: 01:53 sereno Sereno 17 3 39 1015 10 N 27.8
Oggi h: 00:53 sereno Sereno 17 2 36 1016 10 O/NO 13
Ieri h: 23:53 sereno Sereno 18 2 34 1015 10 N/NO 13
Ieri h: 22:53 sereno Sereno 18 2 34 1016 10 NO 16.7
Ieri h: 21:53 sereno Sereno 18 2 34 1015 10 N/NO 40.7
Ieri h: 21:21 poco_nuvoloso Poco Nuvoloso 18 1 31 1015 10 N 42.6
Ieri h: 20:53 poco_nuvoloso Poco Nuvoloso 18 3 36 1015 10 N 5.5
Ieri h: 19:53 nuvoloso Nuvoloso 19 1 29 1014 10 NO 16.7
Ieri h: 18:53 poco_nuvoloso Poco Nuvoloso 19 4 37 1013 10 O 25.9
Ieri h: 17:53 poco_nuvoloso Poco Nuvoloso 18 11 63 1014 10 SO 31.5
Ieri h: 16:53 poco_nuvoloso Poco Nuvoloso 18 11 63 1014 10 O 37
Ieri h: 15:53 poco_nuvoloso Poco Nuvoloso 19 11 59 1014 10 O 38.8
Ieri h: 14:53 poco_nuvoloso Poco Nuvoloso 19 11 59 1015 10 O 37
Ieri h: 13:53 nuvoloso Nuvoloso 19 12 63 1015 10 O 33.3
Ieri h: 12:53 nuvoloso Nuvoloso 18 12 67 1016 14 O/SO 25.9
Ieri h: 11:53 nuvoloso Nuvoloso 18 12 67 1017 14 O 25.9
Ieri h: 10:53 nuvoloso Nuvoloso 18 11 63 1017 10 N 0
Ieri h: 09:53 molto_nuvoloso Molto Nuvoloso 17 12 72 1017 13 N 5.5
Ieri h: 09:37 molto_nuvoloso Molto Nuvoloso 17 12 72 1017 13 N 5.5
Ieri h: 08:53 molto_nuvoloso Molto Nuvoloso 16 12 77 1017 13 NE 9.3
Ieri h: 08:02 molto_nuvoloso Molto Nuvoloso 14 12 87 1017 11 NE 7.4
Ieri h: 07:53 molto_nuvoloso Molto Nuvoloso 14 11 82 1017 13 NE 11.1
Ieri h: 06:53 molto_nuvoloso Molto Nuvoloso 12 11 93 1016 13 E 9.3
Ieri h: 06:39 molto_nuvoloso Molto Nuvoloso 12 11 93 1016 13 E 7.4